sensor_id;sensor_type;location;lat;lon;timestamp;temperature;humidity
20598;DHT22;10457;48.770;11.446;2023-02-01T00:02:44;3.70;86.80
20598;DHT22;10457;48.770;11.446;2023-02-01T00:08:08;3.70;87.70
20598;DHT22;10457;48.770;11.446;2023-02-01T00:13:31;3.70;88.10
20598;DHT22;10457;48.770;11.446;2023-02-01T00:18:57;3.60;88.90
20598;DHT22;10457;48.770;11.446;2023-02-01T00:24:21;3.60;89.00
20598;DHT22;10457;48.770;11.446;2023-02-01T00:29:43;3.60;89.50
20598;DHT22;10457;48.770;11.446;2023-02-01T00:35:06;3.60;89.70
20598;DHT22;10457;48.770;11.446;2023-02-01T00:40:29;3.60;90.40
20598;DHT22;10457;48.770;11.446;2023-02-01T00:45:51;3.60;90.60
20598;DHT22;10457;48.770;11.446;2023-02-01T00:51:15;3.60;91.60
20598;DHT22;10457;48.770;11.446;2023-02-01T00:56:39;3.60;93.10
20598;DHT22;10457;48.770;11.446;2023-02-01T01:02:00;3.60;93.30
20598;DHT22;10457;48.770;11.446;2023-02-01T01:07:22;3.50;93.70
20598;DHT22;10457;48.770;11.446;2023-02-01T01:12:45;3.60;93.00
20598;DHT22;10457;48.770;11.446;2023-02-01T01:18:06;3.70;92.80
20598;DHT22;10457;48.770;11.446;2023-02-01T01:23:28;3.60;94.60
20598;DHT22;10457;48.770;11.446;2023-02-01T01:28:51;3.60;94.60
20598;DHT22;10457;48.770;11.446;2023-02-01T01:34:15;3.60;94.50
20598;DHT22;10457;48.770;11.446;2023-02-01T01:39:36;3.60;95.00
20598;DHT22;10457;48.770;11.446;2023-02-01T01:46:16;3.50;95.60
20598;DHT22;10457;48.770;11.446;2023-02-01T01:51:21;3.70;95.00
20598;DHT22;10457;48.770;11.446;2023-02-01T01:56:46;3.70;94.50
20598;DHT22;10457;48.770;11.446;2023-02-01T02:02:11;3.70;94.70
20598;DHT22;10457;48.770;11.446;2023-02-01T02:07:36;3.70;94.40
20598;DHT22;10457;48.770;11.446;2023-02-01T02:12:58;3.80;94.00
20598;DHT22;10457;48.770;11.446;2023-02-01T02:18:27;3.80;94.00
20598;DHT22;10457;48.770;11.446;2023-02-01T02:36:10;3.90;91.90
20598;DHT22;10457;48.770;11.446;2023-02-01T02:41:43;3.90;91.60
20598;DHT22;10457;48.770;11.446;2023-02-01T02:47:31;3.90;91.30
20598;DHT22;10457;48.770;11.446;2023-02-01T02:53:00;3.80;91.10
20598;DHT22;10457;48.770;11.446;2023-02-01T02:58:41;3.90;90.00
20598;DHT22;10457;48.770;11.446;2023-02-01T03:04:21;4.00;89.80
20598;DHT22;10457;48.770;11.446;2023-02-01T03:09:47;3.90;90.10
20598;DHT22;10457;48.770;11.446;2023-02-01T03:15:12;3.80;91.30
20598;DHT22;10457;48.770;11.446;2023-02-01T03:20:40;3.70;91.50
20598;DHT22;10457;48.770;11.446;2023-02-01T03:26:11;3.70;91.30
20598;DHT22;10457;48.770;11.446;2023-02-01T03:31:36;3.70;91.80
20598;DHT22;10457;48.770;11.446;2023-02-01T03:37:00;3.80;90.40
20598;DHT22;10457;48.770;11.446;2023-02-01T03:42:30;3.70;90.90
20598;DHT22;10457;48.770;11.446;2023-02-01T03:47:59;3.70;91.50
20598;DHT22;10457;48.770;11.446;2023-02-01T03:53:23;3.60;91.20
20598;DHT22;10457;48.770;11.446;2023-02-01T03:58:48;3.70;91.40
20598;DHT22;10457;48.770;11.446;2023-02-01T04:04:20;3.60;91.40
20598;DHT22;10457;48.770;11.446;2023-02-01T04:09:45;3.70;91.40
20598;DHT22;10457;48.770;11.446;2023-02-01T04:15:09;3.70;91.30
20598;DHT22;10457;48.770;11.446;2023-02-01T04:20:31;3.70;91.40
20598;DHT22;10457;48.770;11.446;2023-02-01T04:25:53;3.70;90.70
20598;DHT22;10457;48.770;11.446;2023-02-01T04:31:17;3.80;89.90
20598;DHT22;10457;48.770;11.446;2023-02-01T04:36:45;3.70;89.70
20598;DHT22;10457;48.770;11.446;2023-02-01T04:42:06;3.80;89.30
20598;DHT22;10457;48.770;11.446;2023-02-01T04:47:30;3.70;89.40
20598;DHT22;10457;48.770;11.446;2023-02-01T04:52:51;3.80;89.10
20598;DHT22;10457;48.770;11.446;2023-02-01T04:58:12;3.80;89.00
20598;DHT22;10457;48.770;11.446;2023-02-01T05:03:35;3.80;88.40
20598;DHT22;10457;48.770;11.446;2023-02-01T05:08:57;3.80;88.40
20598;DHT22;10457;48.770;11.446;2023-02-01T05:14:18;3.80;88.40
20598;DHT22;10457;48.770;11.446;2023-02-01T05:19:41;3.70;88.60
20598;DHT22;10457;48.770;11.446;2023-02-01T05:25:03;3.80;89.00
20598;DHT22;10457;48.770;11.446;2023-02-01T05:30:24;3.80;88.40
20598;DHT22;10457;48.770;11.446;2023-02-01T05:35:47;3.80;87.80
20598;DHT22;10457;48.770;11.446;2023-02-01T05:41:10;3.80;87.50
20598;DHT22;10457;48.770;11.446;2023-02-01T05:46:31;3.90;87.30
20598;DHT22;10457;48.770;11.446;2023-02-01T05:51:54;3.90;87.70
20598;DHT22;10457;48.770;11.446;2023-02-01T05:57:16;4.10;87.10
20598;DHT22;10457;48.770;11.446;2023-02-01T06:02:38;4.20;87.60
20598;DHT22;10457;48.770;11.446;2023-02-01T06:08:02;4.30;85.70
20598;DHT22;10457;48.770;11.446;2023-02-01T06:13:24;4.20;86.60
20598;DHT22;10457;48.770;11.446;2023-02-01T06:18:45;4.30;86.40
20598;DHT22;10457;48.770;11.446;2023-02-01T06:24:08;4.30;86.50
20598;DHT22;10457;48.770;11.446;2023-02-01T06:29:33;4.30;85.90
20598;DHT22;10457;48.770;11.446;2023-02-01T06:34:54;4.30;85.80
20598;DHT22;10457;48.770;11.446;2023-02-01T06:40:18;4.40;85.60
20598;DHT22;10457;48.770;11.446;2023-02-01T06:45:39;4.40;85.30
20598;DHT22;10457;48.770;11.446;2023-02-01T06:51:01;4.30;85.00
20598;DHT22;10457;48.770;11.446;2023-02-01T06:56:24;4.30;85.00
20598;DHT22;10457;48.770;11.446;2023-02-01T07:01:46;4.30;85.30
20598;DHT22;10457;48.770;11.446;2023-02-01T07:07:07;4.40;84.50
20598;DHT22;10457;48.770;11.446;2023-02-01T07:12:30;4.40;84.50
20598;DHT22;10457;48.770;11.446;2023-02-01T07:17:54;4.50;83.90
20598;DHT22;10457;48.770;11.446;2023-02-01T07:23:16;4.40;84.30
20598;DHT22;10457;48.770;11.446;2023-02-01T07:28:39;4.50;84.30
20598;DHT22;10457;48.770;11.446;2023-02-01T07:34:01;4.50;84.20
20598;DHT22;10457;48.770;11.446;2023-02-01T07:39:22;4.40;84.80
20598;DHT22;10457;48.770;11.446;2023-02-01T07:44:45;4.40;84.80
20598;DHT22;10457;48.770;11.446;2023-02-01T07:50:07;4.50;85.20
20598;DHT22;10457;48.770;11.446;2023-02-01T07:55:29;4.40;86.20
20598;DHT22;10457;48.770;11.446;2023-02-01T08:00:53;4.30;87.90
20598;DHT22;10457;48.770;11.446;2023-02-01T08:06:33;4.30;88.00
20598;DHT22;10457;48.770;11.446;2023-02-01T08:11:55;4.20;88.90
20598;DHT22;10457;48.770;11.446;2023-02-01T08:17:18;4.10;91.60
20598;DHT22;10457;48.770;11.446;2023-02-01T08:22:39;4.10;91.90
20598;DHT22;10457;48.770;11.446;2023-02-01T08:28:00;4.00;94.00
20598;DHT22;10457;48.770;11.446;2023-02-01T08:33:23;3.90;97.00
20598;DHT22;10457;48.770;11.446;2023-02-01T08:38:45;3.90;99.50
20598;DHT22;10457;48.770;11.446;2023-02-01T08:44:06;3.90;99.90
20598;DHT22;10457;48.770;11.446;2023-02-01T08:49:29;3.80;99.90
20598;DHT22;10457;48.770;11.446;2023-02-01T08:54:50;3.90;99.90
20598;DHT22;10457;48.770;11.446;2023-02-01T09:00:14;4.00;99.90
20598;DHT22;10457;48.770;11.446;2023-02-01T09:05:38;4.00;99.90
20598;DHT22;10457;48.770;11.446;2023-02-01T09:11:00;4.00;99.90
20598;DHT22;10457;48.770;11.446;2023-02-01T09:16:22;4.00;99.90
20598;DHT22;10457;48.770;11.446;2023-02-01T09:21:45;4.20;99.90
20598;DHT22;10457;48.770;11.446;2023-02-01T09:27:07;4.20;98.20
20598;DHT22;10457;48.770;11.446;2023-02-01T09:32:28;4.30;97.00
20598;DHT22;10457;48.770;11.446;2023-02-01T09:37:52;4.30;95.90
20598;DHT22;10457;48.770;11.446;2023-02-01T09:43:21;4.40;95.40
20598;DHT22;10457;48.770;11.446;2023-02-01T09:48:49;4.40;94.50
20598;DHT22;10457;48.770;11.446;2023-02-01T09:54:17;4.50;92.70
20598;DHT22;10457;48.770;11.446;2023-02-01T09:59:42;4.50;92.80
20598;DHT22;10457;48.770;11.446;2023-02-01T10:05:11;4.60;93.60
20598;DHT22;10457;48.770;11.446;2023-02-01T10:10:40;4.50;94.60
20598;DHT22;10457;48.770;11.446;2023-02-01T10:16:15;4.50;95.00
20598;DHT22;10457;48.770;11.446;2023-02-01T10:21:48;4.50;94.30
20598;DHT22;10457;48.770;11.446;2023-02-01T10:27:18;4.30;99.50
20598;DHT22;10457;48.770;11.446;2023-02-01T10:32:41;4.30;99.90
20598;DHT22;10457;48.770;11.446;2023-02-01T10:38:07;4.30;99.90
20598;DHT22;10457;48.770;11.446;2023-02-01T10:43:40;4.20;99.90
20598;DHT22;10457;48.770;11.446;2023-02-01T10:49:03;4.20;99.30
20598;DHT22;10457;48.770;11.446;2023-02-01T10:54:33;4.20;98.80
20598;DHT22;10457;48.770;11.446;2023-02-01T11:00:03;4.30;97.50
20598;DHT22;10457;48.770;11.446;2023-02-01T11:05:43;4.50;97.60
20598;DHT22;10457;48.770;11.446;2023-02-01T11:11:05;4.40;98.90
20598;DHT22;10457;48.770;11.446;2023-02-01T11:16:36;4.40;99.90
20598;DHT22;10457;48.770;11.446;2023-02-01T11:21:59;4.30;99.90
20598;DHT22;10457;48.770;11.446;2023-02-01T11:27:23;4.20;99.90
20598;DHT22;10457;48.770;11.446;2023-02-01T11:32:48;4.10;99.90
20598;DHT22;10457;48.770;11.446;2023-02-01T11:38:19;4.00;99.90
20598;DHT22;10457;48.770;11.446;2023-02-01T11:43:55;3.90;99.90
20598;DHT22;10457;48.770;11.446;2023-02-01T11:49:24;4.10;99.90
20598;DHT22;10457;48.770;11.446;2023-02-01T11:54:59;4.40;99.90
20598;DHT22;10457;48.770;11.446;2023-02-01T12:00:42;4.80;99.90
20598;DHT22;10457;48.770;11.446;2023-02-01T12:06:18;5.20;97.60
20598;DHT22;10457;48.770;11.446;2023-02-01T12:11:55;5.10;98.90
20598;DHT22;10457;48.770;11.446;2023-02-01T12:17:44;4.70;99.90
20598;DHT22;10457;48.770;11.446;2023-02-01T12:23:27;4.60;99.90
20598;DHT22;10457;48.770;11.446;2023-02-01T12:29:17;4.50;99.90
20598;DHT22;10457;48.770;11.446;2023-02-01T12:35:12;4.60;99.90
20598;DHT22;10457;48.770;11.446;2023-02-01T12:40:50;4.70;99.90
20598;DHT22;10457;48.770;11.446;2023-02-01T12:46:20;4.70;98.80
20598;DHT22;10457;48.770;11.446;2023-02-01T12:51:47;4.60;98.30
20598;DHT22;10457;48.770;11.446;2023-02-01T12:57:15;4.50;97.20
20598;DHT22;10457;48.770;11.446;2023-02-01T13:02:42;4.60;97.20
20598;DHT22;10457;48.770;11.446;2023-02-01T13:08:09;4.80;93.90
20598;DHT22;10457;48.770;11.446;2023-02-01T13:13:44;4.80;91.10
20598;DHT22;10457;48.770;11.446;2023-02-01T13:19:13;4.70;91.00
20598;DHT22;10457;48.770;11.446;2023-02-01T13:24:40;4.60;92.10
20598;DHT22;10457;48.770;11.446;2023-02-01T13:30:11;4.70;90.60
20598;DHT22;10457;48.770;11.446;2023-02-01T13:36:14;4.60;92.70
20598;DHT22;10457;48.770;11.446;2023-02-01T13:41:42;4.50;92.50
20598;DHT22;10457;48.770;11.446;2023-02-01T13:47:22;4.50;93.00
20598;DHT22;10457;48.770;11.446;2023-02-01T13:52:52;4.60;91.60
20598;DHT22;10457;48.770;11.446;2023-02-01T13:58:19;4.60;92.40
20598;DHT22;10457;48.770;11.446;2023-02-01T14:03:47;4.70;90.50
20598;DHT22;10457;48.770;11.446;2023-02-01T14:09:18;4.70;88.30
20598;DHT22;10457;48.770;11.446;2023-02-01T14:15:26;4.80;85.40
20598;DHT22;10457;48.770;11.446;2023-02-01T14:20:48;4.90;83.50
20598;DHT22;10457;48.770;11.446;2023-02-01T14:26:19;4.80;81.10
20598;DHT22;10457;48.770;11.446;2023-02-01T14:37:36;5.10;78.50
20598;DHT22;10457;48.770;11.446;2023-02-01T14:42:59;5.10;77.60
20598;DHT22;10457;48.770;11.446;2023-02-01T14:48:44;5.00;77.70
20598;DHT22;10457;48.770;11.446;2023-02-01T14:54:08;5.10;75.70
20598;DHT22;10457;48.770;11.446;2023-02-01T14:59:34;5.10;75.10
20598;DHT22;10457;48.770;11.446;2023-02-01T15:04:57;5.10;74.30
20598;DHT22;10457;48.770;11.446;2023-02-01T15:10:20;5.10;74.60
20598;DHT22;10457;48.770;11.446;2023-02-01T15:15:42;5.10;73.70
20598;DHT22;10457;48.770;11.446;2023-02-01T15:21:07;5.20;73.70
20598;DHT22;10457;48.770;11.446;2023-02-01T15:26:36;5.20;73.10
20598;DHT22;10457;48.770;11.446;2023-02-01T15:31:58;5.10;73.90
20598;DHT22;10457;48.770;11.446;2023-02-01T15:37:21;5.10;73.50
20598;DHT22;10457;48.770;11.446;2023-02-01T15:42:51;5.10;73.60
20598;DHT22;10457;48.770;11.446;2023-02-01T15:48:20;5.10;73.20
20598;DHT22;10457;48.770;11.446;2023-02-01T15:53:47;5.10;73.40
20598;DHT22;10457;48.770;11.446;2023-02-01T15:59:15;5.10;74.60
20598;DHT22;10457;48.770;11.446;2023-02-01T16:04:46;5.00;75.80
20598;DHT22;10457;48.770;11.446;2023-02-01T16:10:24;4.90;76.80
20598;DHT22;10457;48.770;11.446;2023-02-01T16:15:47;4.90;76.90
20598;DHT22;10457;48.770;11.446;2023-02-01T16:21:09;4.90;76.50
20598;DHT22;10457;48.770;11.446;2023-02-01T16:26:33;4.90;76.20
20598;DHT22;10457;48.770;11.446;2023-02-01T16:31:55;4.90;76.60
20598;DHT22;10457;48.770;11.446;2023-02-01T16:37:19;4.90;75.90
20598;DHT22;10457;48.770;11.446;2023-02-01T16:42:51;4.90;76.20
20598;DHT22;10457;48.770;11.446;2023-02-01T16:48:19;4.90;76.00
20598;DHT22;10457;48.770;11.446;2023-02-01T16:53:43;4.90;75.30
20598;DHT22;10457;48.770;11.446;2023-02-01T16:59:07;4.90;75.30
20598;DHT22;10457;48.770;11.446;2023-02-01T17:04:28;4.80;76.10
20598;DHT22;10457;48.770;11.446;2023-02-01T17:09:49;4.80;76.20
20598;DHT22;10457;48.770;11.446;2023-02-01T17:15:13;4.80;76.30
20598;DHT22;10457;48.770;11.446;2023-02-01T17:20:34;4.90;75.90
20598;DHT22;10457;48.770;11.446;2023-02-01T17:25:57;4.80;76.00
20598;DHT22;10457;48.770;11.446;2023-02-01T17:31:20;4.80;75.60
20598;DHT22;10457;48.770;11.446;2023-02-01T17:36:42;4.90;76.00
20598;DHT22;10457;48.770;11.446;2023-02-01T17:42:10;4.80;75.80
20598;DHT22;10457;48.770;11.446;2023-02-01T17:47:33;4.80;76.00
20598;DHT22;10457;48.770;11.446;2023-02-01T17:52:54;4.80;75.70
20598;DHT22;10457;48.770;11.446;2023-02-01T17:58:17;4.90;76.40
20598;DHT22;10457;48.770;11.446;2023-02-01T18:03:40;4.90;74.00
20598;DHT22;10457;48.770;11.446;2023-02-01T18:09:01;5.00;74.20
20598;DHT22;10457;48.770;11.446;2023-02-01T18:14:23;5.00;74.60
20598;DHT22;10457;48.770;11.446;2023-02-01T18:19:46;4.90;74.50
20598;DHT22;10457;48.770;11.446;2023-02-01T18:25:19;5.00;74.50
20598;DHT22;10457;48.770;11.446;2023-02-01T18:30:44;4.90;75.40
20598;DHT22;10457;48.770;11.446;2023-02-01T18:36:11;5.00;74.40
20598;DHT22;10457;48.770;11.446;2023-02-01T18:41:33;4.90;74.60
20598;DHT22;10457;48.770;11.446;2023-02-01T18:46:54;4.90;74.50
20598;DHT22;10457;48.770;11.446;2023-02-01T18:52:17;4.90;74.90
20598;DHT22;10457;48.770;11.446;2023-02-01T18:57:39;4.90;74.20
20598;DHT22;10457;48.770;11.446;2023-02-01T19:03:01;4.80;74.60
20598;DHT22;10457;48.770;11.446;2023-02-01T19:08:23;4.90;74.20
20598;DHT22;10457;48.770;11.446;2023-02-01T19:13:45;5.00;73.90
20598;DHT22;10457;48.770;11.446;2023-02-01T19:19:10;4.80;73.80
20598;DHT22;10457;48.770;11.446;2023-02-01T19:24:32;4.90;74.90
20598;DHT22;10457;48.770;11.446;2023-02-01T19:29:54;5.00;73.80
20598;DHT22;10457;48.770;11.446;2023-02-01T19:35:17;4.90;73.70
20598;DHT22;10457;48.770;11.446;2023-02-01T19:40:41;4.90;73.90
20598;DHT22;10457;48.770;11.446;2023-02-01T19:46:03;4.90;73.10
20598;DHT22;10457;48.770;11.446;2023-02-01T19:51:25;4.90;72.90
20598;DHT22;10457;48.770;11.446;2023-02-01T19:56:48;5.00;72.30
20598;DHT22;10457;48.770;11.446;2023-02-01T20:02:13;5.00;72.20
20598;DHT22;10457;48.770;11.446;2023-02-01T20:07:35;5.00;72.10
20598;DHT22;10457;48.770;11.446;2023-02-01T20:12:58;5.00;72.00
20598;DHT22;10457;48.770;11.446;2023-02-01T20:18:19;5.10;71.90
20598;DHT22;10457;48.770;11.446;2023-02-01T20:23:40;5.00;72.40
20598;DHT22;10457;48.770;11.446;2023-02-01T20:29:04;5.00;72.10
20598;DHT22;10457;48.770;11.446;2023-02-01T20:34:25;5.00;72.10
20598;DHT22;10457;48.770;11.446;2023-02-01T20:39:47;5.00;72.10
20598;DHT22;10457;48.770;11.446;2023-02-01T20:45:10;5.00;72.30
20598;DHT22;10457;48.770;11.446;2023-02-01T20:50:32;5.00;72.60
20598;DHT22;10457;48.770;11.446;2023-02-01T20:55:54;5.00;72.70
20598;DHT22;10457;48.770;11.446;2023-02-01T21:01:18;5.00;72.50
20598;DHT22;10457;48.770;11.446;2023-02-01T21:06:39;5.10;72.20
20598;DHT22;10457;48.770;11.446;2023-02-01T21:12:01;5.10;71.80
20598;DHT22;10457;48.770;11.446;2023-02-01T21:17:24;5.20;72.40
20598;DHT22;10457;48.770;11.446;2023-02-01T21:22:47;5.00;73.90
20598;DHT22;10457;48.770;11.446;2023-02-01T21:28:09;5.00;73.70
20598;DHT22;10457;48.770;11.446;2023-02-01T21:33:33;5.00;73.30
20598;DHT22;10457;48.770;11.446;2023-02-01T21:38:54;5.10;73.40
20598;DHT22;10457;48.770;11.446;2023-02-01T21:44:22;5.00;73.70
20598;DHT22;10457;48.770;11.446;2023-02-01T21:49:46;5.10;73.30
20598;DHT22;10457;48.770;11.446;2023-02-01T21:55:08;5.10;73.60
20598;DHT22;10457;48.770;11.446;2023-02-01T22:00:30;5.10;73.70
20598;DHT22;10457;48.770;11.446;2023-02-01T22:05:53;5.10;73.60
20598;DHT22;10457;48.770;11.446;2023-02-01T22:11:14;5.10;74.20
20598;DHT22;10457;48.770;11.446;2023-02-01T22:16:35;5.10;74.40
20598;DHT22;10457;48.770;11.446;2023-02-01T22:21:58;5.10;74.80
20598;DHT22;10457;48.770;11.446;2023-02-01T22:27:19;5.10;74.20
20598;DHT22;10457;48.770;11.446;2023-02-01T22:32:41;5.10;74.30
20598;DHT22;10457;48.770;11.446;2023-02-01T22:38:04;5.10;74.50
20598;DHT22;10457;48.770;11.446;2023-02-01T22:43:26;5.00;74.40
20598;DHT22;10457;48.770;11.446;2023-02-01T22:48:48;5.00;74.80
20598;DHT22;10457;48.770;11.446;2023-02-01T22:54:15;4.90;75.60
20598;DHT22;10457;48.770;11.446;2023-02-01T22:59:37;4.90;76.30
20598;DHT22;10457;48.770;11.446;2023-02-01T23:04:59;4.90;76.90
20598;DHT22;10457;48.770;11.446;2023-02-01T23:10:22;4.90;77.40
20598;DHT22;10457;48.770;11.446;2023-02-01T23:15:43;4.90;77.60
20598;DHT22;10457;48.770;11.446;2023-02-01T23:21:06;4.90;78.30
20598;DHT22;10457;48.770;11.446;2023-02-01T23:26:31;5.00;78.20
20598;DHT22;10457;48.770;11.446;2023-02-01T23:31:52;4.80;79.00
20598;DHT22;10457;48.770;11.446;2023-02-01T23:37:14;4.80;79.40
20598;DHT22;10457;48.770;11.446;2023-02-01T23:42:37;4.80;79.50
20598;DHT22;10457;48.770;11.446;2023-02-01T23:47:58;4.80;79.80
20598;DHT22;10457;48.770;11.446;2023-02-01T23:53:19;4.80;80.50
20598;DHT22;10457;48.770;11.446;2023-02-01T23:58:42;4.80;80.80
